Georgetown, TX (78633)

3:17 PM CDT on September 02, 2015 (GMT -0500)
Serenada West | | Change Station
CLOSE
Current Station
Personal Weather Station
Location: Georgetown, TX
Elevation: 790 ft
Nearby Weather Stations

Elev 790 ft 30.69 °N, 97.70 °W | Updated 13 seconds ago

Scattered Clouds
Scattered Clouds
91.9 °F
Feels Like 88 °F
N
2.5
Wind Variable Wind from ESE
Gusts 7.4 mph

Today
High -- | Low -- °F
--% Chance of Precip.
Yesterday
High -- | Low -- °F
Precip. -- in
7:07 AM 7:52 PM
Waning Gibbous, 77% visible
Pressure 30.01 in
Visibility 10.0 miles
Clouds Scattered Clouds 5000 ft
Heat Index 88 °F
Dew Point 19 °F
Humidity 7%
Rainfall 0.00 in
Snow Depth Not available.
UV 8 out of 12
Pollen 6.80 out of 12
Air Quality Not available.
Flu Activity Not available.
METAR KGTU 021951Z 07008KT 090V120 10SM SCT050 33/18 A3001
Pressure 30.01 in
Visibility 10.0 miles
Clouds Scattered Clouds 5000 ft
Heat Index 88 °F
Dew Point 19 °F
Humidity 7%
Rainfall 0.00 in
Snow Depth Not available.
UV 8 out of 12
Pollen 6.80 out of 12
Air Quality Not available.
Flu Activity Not available.
METAR KGTU 021951Z 07008KT 090V120 10SM SCT050 33/18 A3001
Nowcast | as of 2:57 PM CDT on September 2, 2015

Isolated to scattered light to moderate showers have developed across the coastal plains of Texas and are pushing west towards the Interstate 35 corridor. Overall rainfall amounts have been light thus far with only a few hundredths of an inch. Some locations may be able to receive up to a tenth under heavier showers. This activity will persist through the afternoon and early evening hours and finally dissipate by 8 to 10 PM.

×

10-Day Weather Forecast

×

Almanac

Astronomy

Sep. 02, 2015 Rise Set
Actual Time
Civil Twilight
Nautical Twilight
Astronomical Twilight
Moon
Length of Visible Light
Length of Day
Tomorrow will be .
, % of the Moon is Illuminated

Today's Extremes

State Highs State Lows

Community

WunderPhotos

Upload Photos

1,851,803 photos uploaded!

WunderBlogs® & News

Nearby

Air Quality

  Air Quality AQ Index Pollutant
Not available.

Snow Depth

Station Depth Elevation

Earthquake Activity

City Distance Mag. Time & Date
Minimum magnitude displayed is 2.5.

Coastal Water Temperatures

Place Temperature

Stations

Nearby Weather Stations

Station Location Temp. Windchill Dew Point Humidity Wind Precip. Elev Updated Type